Time;durP1;ratioP1;P1;durP2;ratioP2;P2;SDS_P1;SDS_P2;PMS_P1;PMS_P2;Temp;Humidity;BMP_temperature;BMP_pressure;BME280_temperature;BME280_humidity;BME280_pressure;Samples;Min_cycle;Max_cycle;Signal;HPM_P1;HPM_P2
2023/12/01 00:00:00;;;;;;;6.73;5.67;;;;;;;4.75;82.29;93080.16;517760;28;3913;-70
2023/12/01 00:00:16;;;;;;;7.15;5.43;;;;;;;4.76;82.27;93086.38;517825;28;3901;-70
2023/12/01 00:00:31;;;;;;;8.23;6.07;;;;;;;4.77;82.01;93088.59;516576;28;3071;-70
2023/12/01 00:00:47;;;;;;;7.67;5.80;;;;;;;4.79;81.79;93085.31;518416;28;3895;-70
2023/12/01 00:01:02;;;;;;;6.75;5.30;;;;;;;4.79;82.05;93086.06;517650;28;3347;-71
2023/12/01 00:01:18;;;;;;;6.70;5.13;;;;;;;4.80;81.78;93089.56;518080;28;2608;-70
2023/12/01 00:01:33;;;;;;;7.20;5.13;;;;;;;4.60;82.09;93061.50;517669;28;3161;-70
2023/12/01 00:01:48;;;;;;;7.10;5.03;;;;;;;4.81;82.09;93088.31;519202;28;3023;-70
2023/12/01 00:02:04;;;;;;;6.10;4.95;;;;;;;4.81;81.73;93086.28;520663;28;3077;-71
2023/12/01 00:02:21;;;;;;;5.83;5.20;;;;;;;4.81;82.15;93091.03;520780;28;3700;-70
2023/12/01 00:02:36;;;;;;;5.80;4.97;;;;;;;4.81;81.88;93091.75;520024;28;3272;-70
2023/12/01 00:02:52;;;;;;;6.43;5.37;;;;;;;4.82;82.03;93095.97;521541;28;3573;-70
2023/12/01 00:03:08;;;;;;;8.80;6.17;;;;;;;4.82;82.29;93095.97;522458;28;3378;-71
2023/12/01 00:03:23;;;;;;;8.63;6.07;;;;;;;4.83;81.93;93096.72;521973;28;2194;-71
2023/12/01 00:03:39;;;;;;;7.20;5.67;;;;;;;4.83;82.15;93086.50;522025;28;2472;-70
2023/12/01 00:03:54;;;;;;;9.73;5.95;;;;;;;4.84;82.08;93096.19;522605;28;1918;-70
2023/12/01 00:04:09;;;;;;;10.13;5.80;;;;;;;4.85;82.03;93099.69;522848;28;1570;-71
2023/12/01 00:04:25;;;;;;;7.13;5.55;;;;;;;4.87;82.15;93094.44;522430;28;1749;-71
2023/12/01 00:04:40;;;;;;;6.93;5.93;;;;;;;4.87;81.65;93094.44;522966;28;3562;-71
2023/12/01 00:04:56;;;;;;;7.23;6.00;;;;;;;4.85;81.96;93094.22;519885;28;2451;-70
2023/12/01 00:05:11;;;;;;;7.53;5.97;;;;;;;4.83;81.58;93097.44;521335;28;3255;-71
2023/12/01 00:05:27;;;;;;;7.70;5.80;;;;;;;4.83;81.70;93097.44;519439;28;3081;-71
2023/12/01 00:05:42;;;;;;;8.27;5.88;;;;;;;4.84;81.60;93101.66;520800;28;2868;-70
2023/12/01 00:05:57;;;;;;;8.00;5.87;;;;;;;4.86;81.67;93090.19;519990;28;3448;-70
2023/12/01 00:06:13;;;;;;;7.07;6.07;;;;;;;4.87;81.66;93086.97;520606;28;3267;-71
2023/12/01 00:06:29;;;;;;;7.97;6.00;;;;;;;4.86;81.69;93090.94;520272;28;3893;-70
2023/12/01 00:06:44;;;;;;;7.75;5.50;;;;;;;4.88;81.64;93093.16;522923;28;3073;-70
2023/12/01 00:07:00;;;;;;;7.38;5.80;;;;;;;4.88;81.67;93087.69;521505;28;3068;-71
2023/12/01 00:07:15;;;;;;;7.27;5.80;;;;;;;4.89;81.85;93089.16;522281;28;2094;-70
2023/12/01 00:07:31;;;;;;;7.30;5.88;;;;;;;4.89;81.82;93086.44;521187;28;2078;-70
2023/12/01 00:07:47;;;;;;;7.10;5.70;;;;;;;4.88;81.62;93085.69;521168;28;3327;-70
2023/12/01 00:08:02;;;;;;;6.63;5.45;;;;;;;4.88;81.59;93090.41;520183;28;3479;-70
2023/12/01 00:08:18;;;;;;;7.93;6.00;;;;;;;4.83;81.31;93091.97;520748;28;1867;-70
2023/12/01 00:08:33;;;;;;;10.40;6.45;;;;;;;4.84;81.27;93098.19;522038;28;3122;-70
2023/12/01 00:08:48;;;;;;;10.07;6.77;;;;;;;4.84;81.44;93090.00;522593;28;3331;-70
2023/12/01 00:09:04;;;;;;;8.57;6.60;;;;;;;4.86;81.52;93092.94;520146;28;3896;-70
2023/12/01 00:09:19;;;;;;;8.40;6.27;;;;;;;4.65;81.80;93064.66;522245;28;3605;-70
2023/12/01 00:09:35;;;;;;;9.23;6.93;;;;;;;4.82;81.71;93081.56;519349;28;3407;-70
2023/12/01 00:09:52;;;;;;;8.77;6.67;;;;;;;4.84;81.37;93093.47;520885;28;3458;-70
2023/12/01 00:10:13;;;;;;;7.07;5.53;;;;;;;4.80;81.42;93092.28;520074;28;3654;-70
2023/12/01 00:10:29;;;;;;;6.38;4.95;;;;;;;4.78;81.43;93098.28;519920;28;3466;-70
2023/12/01 00:10:44;;;;;;;6.68;5.03;;;;;;;4.79;81.47;93094.28;523071;28;1542;-72
2023/12/01 00:10:59;;;;;;;9.43;5.23;;;;;;;4.79;81.55;93093.53;521486;28;2129;-70
2023/12/01 00:11:15;;;;;;;9.55;5.25;;;;;;;4.81;81.22;93104.72;521282;28;2194;-70
2023/12/01 00:11:30;;;;;;;7.80;5.13;;;;;;;4.81;81.37;93094.50;521071;28;3340;-70
2023/12/01 00:11:46;;;;;;;7.55;5.38;;;;;;;4.82;81.68;93095.25;522431;28;3413;-70
2023/12/01 00:12:02;;;;;;;6.80;5.30;;;;;;;4.83;81.21;93091.97;520930;28;3092;-70
2023/12/01 00:12:18;;;;;;;6.40;4.85;;;;;;;4.86;81.42;93095.66;520630;28;2720;-71
2023/12/01 00:12:33;;;;;;;6.40;4.90;;;;;;;4.86;81.45;93090.94;517553;28;3035;-70
2023/12/01 00:12:49;;;;;;;6.40;4.90;;;;;;;4.89;81.07;93092.66;518259;28;3801;-70
2023/12/01 00:13:04;;;;;;;6.80;5.10;;;;;;;4.90;81.11;93094.13;518154;28;3710;-70
2023/12/01 00:13:20;;;;;;;9.57;5.20;;;;;;;4.93;80.68;93095.06;518143;28;3095;-70
2023/12/01 00:13:35;;;;;;;8.82;5.28;;;;;;;4.89;80.55;93091.91;518051;28;3522;-70
2023/12/01 00:13:50;;;;;;;7.23;5.17;;;;;;;4.87;80.88;93091.69;517742;28;1997;-71
2023/12/01 00:14:06;;;;;;;7.95;5.20;;;;;;;4.86;80.84;93092.94;517882;28;3274;-70
2023/12/01 00:14:22;;;;;;;6.30;5.13;;;;;;;4.86;80.47;93090.19;517663;28;4035;-70
2023/12/01 00:14:40;;;;;;;7.28;4.90;;;;;;;4.87;80.82;93088.97;520862;28;3523;-70
2023/12/01 00:14:55;;;;;;;8.43;5.45;;;;;;;4.88;80.54;93084.94;522386;28;3476;-70
2023/12/01 00:15:11;;;;;;;9.48;5.60;;;;;;;4.90;80.79;93087.91;522423;28;4434;-71
2023/12/01 00:15:27;;;;;;;7.97;5.33;;;;;;;4.91;80.64;93089.38;521255;28;3205;-70
2023/12/01 00:15:42;;;;;;;8.13;5.43;;;;;;;4.91;80.29;93092.13;521559;28;3255;-70
2023/12/01 00:15:58;;;;;;;9.00;5.93;;;;;;;4.91;80.37;93092.13;520025;28;3348;-70
2023/12/01 00:16:13;;;;;;;8.05;5.90;;;;;;;4.90;80.57;93099.59;520789;28;3458;-70
2023/12/01 00:16:29;;;;;;;6.80;5.60;;;;;;;4.91;80.59;93100.31;519877;28;3221;-70
2023/12/01 00:16:44;;;;;;;8.52;5.63;;;;;;;4.90;80.52;93102.31;521850;28;3867;-70
2023/12/01 00:17:00;;;;;;;9.03;5.77;;;;;;;4.87;80.39;93094.44;522427;28;3214;-70
2023/12/01 00:17:15;;;;;;;7.15;5.65;;;;;;;4.76;80.39;93092.59;522429;28;4164;-70
2023/12/01 00:17:32;;;;;;;7.97;5.60;;;;;;;4.74;80.52;93094.38;519901;28;3273;-70
2023/12/01 00:17:47;;;;;;;7.90;5.70;;;;;;;4.71;80.93;93100.88;520866;28;3411;-70
2023/12/01 00:18:03;;;;;;;6.85;5.47;;;;;;;4.68;80.68;93108.09;520258;28;3466;-70
2023/12/01 00:18:18;;;;;;;6.83;5.27;;;;;;;4.59;81.21;93101.03;520642;28;2423;-70
2023/12/01 00:18:34;;;;;;;6.93;5.13;;;;;;;4.55;81.59;93103.31;519773;28;3353;-70
2023/12/01 00:18:49;;;;;;;6.30;4.93;;;;;;;4.55;81.09;93100.59;520816;28;3403;-70
2023/12/01 00:19:05;;;;;;;6.73;5.07;;;;;;;4.55;81.10;93097.84;520537;28;3300;-70
2023/12/01 00:19:20;;;;;;;7.72;5.35;;;;;;;4.50;81.35;93090.47;520444;28;3431;-70
2023/12/01 00:19:36;;;;;;;7.20;5.40;;;;;;;4.48;81.61;93101.19;519976;28;1918;-70
2023/12/01 00:19:52;;;;;;;8.10;5.53;;;;;;;4.49;81.78;93096.44;520852;28;3440;-70
2023/12/01 00:20:08;;;;;;;7.93;5.67;;;;;;;4.48;81.79;93095.72;519903;28;1605;-70
2023/12/01 00:20:24;;;;;;;7.43;5.53;;;;;;;4.50;81.89;93097.94;521983;28;3644;-70
2023/12/01 00:20:39;;;;;;;7.55;5.63;;;;;;;4.52;81.64;93096.16;520492;28;2481;-70
2023/12/01 00:20:54;;;;;;;7.63;5.57;;;;;;;4.55;81.59;93089.66;520500;28;3642;-70
2023/12/01 00:21:10;;;;;;;7.40;5.60;;;;;;;4.58;81.46;93093.34;520245;28;3316;-70
2023/12/01 00:21:25;;;;;;;6.70;5.23;;;;;;;4.59;81.39;93095.56;520184;28;3007;-71
2023/12/01 00:21:41;;;;;;;6.40;4.90;;;;;;;4.59;81.38;93098.28;519818;28;3096;-70
2023/12/01 00:21:57;;;;;;;6.33;4.97;;;;;;;4.59;81.11;93089.38;520607;28;3632;-70
2023/12/01 00:22:13;;;;;;;5.70;5.03;;;;;;;4.57;81.51;93092.59;520030;28;2064;-70
2023/12/01 00:22:28;;;;;;;5.95;5.15;;;;;;;4.57;81.58;93091.84;519927;28;4188;-70
2023/12/01 00:22:44;;;;;;;6.65;5.05;;;;;;;4.52;81.42;93089.97;520540;28;2417;-70
2023/12/01 00:22:59;;;;;;;6.43;4.97;;;;;;;4.48;81.60;93090.25;521691;28;3433;-71
2023/12/01 00:23:15;;;;;;;6.90;5.25;;;;;;;4.45;81.46;93085.81;521413;28;3377;-70
2023/12/01 00:23:31;;;;;;;8.83;5.83;;;;;;;4.46;82.04;93090.03;520344;28;2367;-70
2023/12/01 00:23:46;;;;;;;8.18;5.80;;;;;;;4.46;81.81;93087.28;520526;28;1881;-71
2023/12/01 00:24:02;;;;;;;6.63;5.37;;;;;;;4.49;82.11;93093.72;519992;28;3772;-71
2023/12/01 00:24:17;;;;;;;7.70;5.57;;;;;;;4.50;81.81;93092.47;519902;28;3418;-70
2023/12/01 00:24:33;;;;;;;7.75;5.78;;;;;;;4.51;81.64;93094.69;519285;28;3626;-70
2023/12/01 00:24:48;;;;;;;8.57;5.87;;;;;;;4.53;81.74;93096.88;520856;28;3881;-70
2023/12/01 00:25:05;;;;;;;9.65;6.05;;;;;;;4.54;81.79;93090.91;520268;28;3682;-70
2023/12/01 00:25:20;;;;;;;8.13;6.05;;;;;;;4.55;81.99;93095.13;520236;28;3272;-70
2023/12/01 00:25:36;;;;;;;8.07;6.60;;;;;;;4.56;81.89;93090.41;519831;28;2344;-70
2023/12/01 00:25:51;;;;;;;9.90;7.90;;;;;;;4.56;81.91;93085.66;521386;28;1870;-70
2023/12/01 00:26:07;;;;;;;13.70;8.83;;;;;;;4.57;81.62;93083.66;520231;28;3575;-70
2023/12/01 00:26:22;;;;;;;17.02;10.93;;;;;;;4.58;81.37;93091.34;519490;28;2236;-70
2023/12/01 00:26:38;;;;;;;17.60;12.23;;;;;;;4.59;81.28;93090.09;521922;28;3563;-70
2023/12/01 00:26:53;;;;;;;15.88;11.25;;;;;;;4.61;81.37;93090.31;522713;28;3170;-70
2023/12/01 00:27:09;;;;;;;14.53;10.53;;;;;;;4.63;81.40;93091.78;520341;28;3225;-70
2023/12/01 00:27:24;;;;;;;20.33;14.07;;;;;;;4.64;81.08;93088.53;520587;28;2102;-70
2023/12/01 00:27:40;;;;;;;24.70;17.63;;;;;;;4.65;81.03;93087.28;519571;28;3182;-70
2023/12/01 00:27:55;;;;;;;23.60;16.85;;;;;;;4.66;81.04;93090.78;520784;28;3599;-70
2023/12/01 00:28:10;;;;;;;21.53;15.90;;;;;;;4.68;80.93;93088.25;521596;28;3269;-70
2023/12/01 00:28:26;;;;;;;20.48;15.35;;;;;;;4.68;81.33;93088.97;521234;28;3222;-70
2023/12/01 00:28:41;;;;;;;22.17;15.70;;;;;;;4.66;80.93;93088.03;522055;28;3853;-70
2023/12/01 00:28:57;;;;;;;22.17;15.63;;;;;;;4.68;80.66;93088.25;523124;28;3247;-71
2023/12/01 00:29:12;;;;;;;20.33;15.05;;;;;;;4.67;81.13;93092.22;521793;28;3225;-70
2023/12/01 00:29:28;;;;;;;18.70;14.47;;;;;;;4.66;80.78;93088.03;521599;28;1890;-70
2023/12/01 00:29:43;;;;;;;18.48;13.68;;;;;;;4.65;81.19;93089.28;520337;28;3080;-70
2023/12/01 00:29:59;;;;;;;16.87;12.73;;;;;;;4.60;80.91;93090.84;520205;28;3873;-71
2023/12/01 00:30:14;;;;;;;14.70;11.77;;;;;;;4.57;81.14;93084.41;519597;28;2226;-71
2023/12/01 00:30:30;;;;;;;14.23;10.98;;;;;;;4.56;81.12;93085.66;520058;28;3077;-71
2023/12/01 00:30:46;;;;;;;13.87;10.53;;;;;;;4.57;80.76;93084.41;519691;28;2168;-71
2023/12/01 00:31:01;;;;;;;12.88;10.00;;;;;;;4.57;81.18;93086.38;520447;28;3157;-70
2023/12/01 00:31:17;;;;;;;13.00;9.93;;;;;;;4.57;81.16;93091.84;520024;28;3164;-70
2023/12/01 00:31:32;;;;;;;13.90;10.98;;;;;;;4.59;81.18;93089.38;520028;28;2576;-71
2023/12/01 00:31:47;;;;;;;15.63;12.20;;;;;;;4.59;81.23;93090.09;520851;28;2221;-70
2023/12/01 00:32:03;;;;;;;17.65;12.98;;;;;;;4.58;81.11;93087.88;520204;28;3350;-70
2023/12/01 00:32:18;;;;;;;18.63;13.57;;;;;;;4.57;80.84;93091.84;520105;28;2967;-71
2023/12/01 00:32:34;;;;;;;19.05;13.02;;;;;;;4.56;80.86;93087.66;519438;28;2844;-71
2023/12/01 00:32:50;;;;;;;17.03;11.03;;;;;;;4.57;80.77;93092.59;520907;28;2459;-70
2023/12/01 00:33:05;;;;;;;14.02;9.55;;;;;;;4.58;80.83;93088.63;519915;28;3467;-71
2023/12/01 00:33:21;;;;;;;10.70;8.10;;;;;;;4.59;80.58;93092.09;520245;28;3801;-70
2023/12/01 00:33:36;;;;;;;8.50;6.72;;;;;;;4.60;80.78;93090.84;519655;28;3975;-71
2023/12/01 00:33:52;;;;;;;8.50;6.20;;;;;;;4.63;80.60;93090.53;519356;28;2261;-70
2023/12/01 00:34:07;;;;;;;6.97;5.27;;;;;;;4.65;80.58;93089.28;519906;28;3287;-70
2023/12/01 00:34:23;;;;;;;8.87;6.37;;;;;;;4.66;80.81;93088.75;519835;28;1849;-70
2023/12/01 00:34:38;;;;;;;10.68;7.88;;;;;;;4.66;80.54;93088.03;519692;28;3199;-70
2023/12/01 00:34:53;;;;;;;8.70;6.87;;;;;;;4.65;80.51;93086.53;520811;28;3249;-70
2023/12/01 00:35:10;;;;;;;8.23;6.38;;;;;;;4.67;80.22;93087.50;522083;28;3350;-70
2023/12/01 00:35:25;;;;;;;9.47;6.63;;;;;;;4.55;80.39;93070.50;521304;28;4337;-70
2023/12/01 00:35:41;;;;;;;10.30;7.03;;;;;;;4.60;80.72;93072.44;522280;28;2142;-70
2023/12/01 00:35:56;;;;;;;10.83;7.83;;;;;;;4.62;80.33;93082.84;522702;28;2010;-70
2023/12/01 00:36:12;;;;;;;19.73;13.98;;;;;;;4.61;80.06;93084.13;521785;28;3898;-70
2023/12/01 00:36:27;;;;;;;33.00;22.27;;;;;;;4.62;80.56;93082.84;521694;28;3924;-70
2023/12/01 00:36:43;;;;;;;27.20;18.13;;;;;;;4.62;80.73;93080.13;522251;28;3478;-70
2023/12/01 00:36:58;;;;;;;12.85;9.23;;;;;;;4.58;80.35;93082.41;520661;28;3217;-70
2023/12/01 00:37:16;;;;;;;21.03;14.20;;;;;;;4.57;80.54;93080.91;520151;28;3470;-70
2023/12/01 00:37:31;;;;;;;36.35;24.10;;;;;;;4.57;80.77;93078.94;520270;28;3311;-70
2023/12/01 00:37:47;;;;;;;46.97;31.10;;;;;;;4.57;80.62;93086.38;520353;28;1849;-70
2023/12/01 00:38:03;;;;;;;36.13;24.77;;;;;;;4.57;80.74;93073.47;520879;28;3919;-70
2023/12/01 00:38:19;;;;;;;17.08;12.00;;;;;;;4.56;80.62;93074.75;520184;28;2758;-70
2023/12/01 00:38:34;;;;;;;12.05;8.40;;;;;;;4.58;80.91;93077.69;519895;28;3216;-70
2023/12/01 00:38:50;;;;;;;9.02;6.50;;;;;;;4.57;80.36;93076.19;520033;28;3160;-70
2023/12/01 00:39:06;;;;;;;5.85;4.72;;;;;;;4.59;80.87;93075.69;522575;28;3773;-70
2023/12/01 00:39:22;;;;;;;6.03;4.60;;;;;;;4.60;80.72;93077.91;517818;28;3292;-70
2023/12/01 00:39:38;;;;;;;7.23;4.93;;;;;;;4.57;81.10;93068.00;518003;28;3249;-70
2023/12/01 00:39:53;;;;;;;6.70;4.78;;;;;;;4.48;80.71;93073.84;517935;28;2489;-70
2023/12/01 00:40:10;;;;;;;5.50;4.23;;;;;;;4.48;81.42;93068.38;520101;28;3287;-70
2023/12/01 00:40:25;;;;;;;4.45;4.00;;;;;;;4.49;81.20;93077.31;519783;28;3304;-70
2023/12/01 00:40:41;;;;;;;4.97;4.40;;;;;;;4.45;80.91;93063.22;518643;28;2343;-70
2023/12/01 00:40:56;;;;;;;5.75;4.50;;;;;;;4.47;81.35;93072.38;518089;28;3534;-70
2023/12/01 00:41:11;;;;;;;5.97;4.43;;;;;;;4.48;81.07;93073.84;518760;28;3225;-70
2023/12/01 00:41:27;;;;;;;5.22;4.40;;;;;;;4.48;81.30;93068.38;521743;28;1938;-70
2023/12/01 00:41:42;;;;;;;4.90;4.40;;;;;;;4.50;81.43;93073.34;522248;28;3501;-70
2023/12/01 00:41:58;;;;;;;5.82;4.63;;;;;;;4.52;81.30;93074.31;522272;28;3058;-70
2023/12/01 00:42:13;;;;;;;5.53;4.37;;;;;;;4.33;81.06;93045.50;522578;28;3120;-70
2023/12/01 00:42:29;;;;;;;5.10;4.45;;;;;;;4.54;81.29;93071.03;522317;28;2725;-70
2023/12/01 00:42:44;;;;;;;6.33;4.97;;;;;;;4.55;81.25;93067.78;523008;28;3154;-70
2023/12/01 00:43:01;;;;;;;6.22;4.97;;;;;;;4.55;81.02;93070.50;520401;28;2072;-70
2023/12/01 00:43:16;;;;;;;4.80;4.28;;;;;;;4.49;81.46;93075.31;520454;28;3570;-70
2023/12/01 00:43:31;;;;;;;4.70;4.17;;;;;;;4.41;81.44;93058.06;521987;28;2127;-70
2023/12/01 00:43:48;;;;;;;6.00;4.40;;;;;;;4.37;81.84;93065.06;522159;28;2095;-70
2023/12/01 00:44:03;;;;;;;6.05;4.75;;;;;;;4.37;81.70;93070.53;522590;28;2296;-70
2023/12/01 00:44:19;;;;;;;7.13;4.85;;;;;;;4.36;81.72;93072.53;521774;28;2118;-70
2023/12/01 00:44:34;;;;;;;8.43;4.93;;;;;;;4.39;81.79;93073.50;522629;28;2300;-70
2023/12/01 00:44:50;;;;;;;6.35;4.63;;;;;;;4.39;81.79;93071.50;521330;28;3794;-70
2023/12/01 00:45:06;;;;;;;4.70;4.20;;;;;;;4.41;81.54;93069.00;522395;28;2143;-70
2023/12/01 00:45:21;;;;;;;5.70;4.15;;;;;;;4.42;81.46;93067.72;522105;28;3362;-70
2023/12/01 00:45:36;;;;;;;6.47;4.37;;;;;;;4.45;81.59;93077.63;522552;28;3345;-70
2023/12/01 00:45:52;;;;;;;5.15;4.32;;;;;;;4.33;81.47;93056.44;522555;28;3075;-70
2023/12/01 00:46:07;;;;;;;4.97;4.20;;;;;;;4.44;81.37;93073.41;520776;28;3139;-70
2023/12/01 00:46:23;;;;;;;5.22;4.30;;;;;;;4.43;81.73;93069.22;520490;28;2135;-70
2023/12/01 00:46:38;;;;;;;5.60;4.20;;;;;;;4.38;81.68;93080.19;520473;28;3588;-70
2023/12/01 00:46:54;;;;;;;5.82;4.40;;;;;;;4.34;81.90;93066.84;521917;28;3273;-70
2023/12/01 00:47:09;;;;;;;5.33;4.50;;;;;;;4.22;82.02;93070.97;522194;28;3664;-70
2023/12/01 00:47:24;;;;;;;5.53;4.70;;;;;;;4.17;82.06;93071.78;519455;28;1842;-70
2023/12/01 00:47:41;;;;;;;6.30;4.80;;;;;;;4.15;82.22;93074.31;520778;28;2400;-70
2023/12/01 00:47:56;;;;;;;6.55;4.70;;;;;;;4.12;82.56;93074.59;520198;28;2904;-70
2023/12/01 00:48:12;;;;;;;5.83;4.50;;;;;;;4.09;82.52;93081.84;520425;28;2207;-70
2023/12/01 00:48:27;;;;;;;6.13;4.57;;;;;;;4.09;82.49;93073.63;519773;28;1937;-70
2023/12/01 00:48:43;;;;;;;6.30;4.37;;;;;;;4.12;82.84;93080.78;520311;28;3376;-70
2023/12/01 00:48:58;;;;;;;5.78;4.40;;;;;;;4.08;83.08;93080.34;519978;28;2559;-70
2023/12/01 00:49:13;;;;;;;6.33;4.97;;;;;;;4.09;83.30;93070.91;519892;28;3896;-70
2023/12/01 00:49:31;;;;;;;6.32;5.00;;;;;;;4.06;83.03;93071.94;520118;28;3551;-70
2023/12/01 00:49:47;;;;;;;7.05;5.03;;;;;;;4.06;82.94;93071.94;521054;28;2355;-70
2023/12/01 00:50:03;;;;;;;7.63;5.20;;;;;;;4.01;83.51;93070.00;520003;28;2235;-70
2023/12/01 00:50:19;;;;;;;7.55;5.47;;;;;;;3.98;83.72;93073.78;519502;28;3140;-70
2023/12/01 00:50:34;;;;;;;8.02;5.45;;;;;;;3.99;83.44;93066.31;519993;28;2896;-70
2023/12/01 00:50:51;;;;;;;7.73;4.90;;;;;;;4.00;83.39;93073.25;520278;28;3445;-70
2023/12/01 00:51:17;;;;;;;6.97;5.10;;;;;;;4.05;83.66;93070.44;520244;28;3903;-70
2023/12/01 00:51:32;;;;;;;7.35;5.10;;;;;;;4.09;83.80;93070.16;520808;28;3949;-70
2023/12/01 00:51:48;;;;;;;7.75;5.18;;;;;;;4.13;83.50;93076.81;519917;28;3157;-70
2023/12/01 00:52:04;;;;;;;7.53;4.97;;;;;;;4.16;83.62;93072.31;521052;28;2704;-70
2023/12/01 00:52:19;;;;;;;7.07;5.38;;;;;;;4.19;83.08;93077.47;521289;28;2123;-70
2023/12/01 00:52:35;;;;;;;6.15;5.30;;;;;;;4.23;83.44;93071.72;522689;28;4171;-70
2023/12/01 00:52:51;;;;;;;6.17;5.03;;;;;;;4.24;83.17;93073.94;521379;28;3226;-70
2023/12/01 00:53:06;;;;;;;6.25;5.20;;;;;;;4.26;83.24;93079.63;522437;28;1902;-71
2023/12/01 00:53:22;;;;;;;5.90;5.10;;;;;;;4.29;82.80;93075.09;519250;28;3450;-70
2023/12/01 00:53:37;;;;;;;6.67;5.60;;;;;;;4.31;82.92;93076.06;520685;28;3432;-70
2023/12/01 00:53:53;;;;;;;7.00;5.65;;;;;;;4.32;82.93;93072.09;519891;28;2271;-70
2023/12/01 00:54:08;;;;;;;6.37;4.97;;;;;;;4.34;82.87;93074.28;520779;28;4081;-70
2023/12/01 00:54:24;;;;;;;5.72;4.97;;;;;;;4.34;82.67;93071.56;519715;28;3410;-70
2023/12/01 00:54:39;;;;;;;6.03;5.13;;;;;;;4.36;82.34;93071.78;520357;28;3082;-70
2023/12/01 00:54:55;;;;;;;6.68;5.20;;;;;;;4.37;82.28;93068.56;521352;28;3206;-70
2023/12/01 00:55:10;;;;;;;7.13;5.50;;;;;;;4.38;82.62;93064.53;522348;28;3405;-70
2023/12/01 00:55:25;;;;;;;7.87;5.77;;;;;;;4.39;82.31;93073.50;521537;28;3209;-70
2023/12/01 00:55:41;;;;;;;7.15;5.50;;;;;;;4.18;82.45;93037.75;522746;28;2044;-70
2023/12/01 00:55:56;;;;;;;5.93;5.20;;;;;;;4.42;82.64;93064.25;522403;28;3318;-71
2023/12/01 00:56:12;;;;;;;7.28;5.53;;;;;;;4.43;82.50;93068.47;522758;28;2069;-70
2023/12/01 00:56:28;;;;;;;8.07;5.78;;;;;;;4.43;82.05;93069.22;519905;28;3232;-71
2023/12/01 00:56:44;;;;;;;6.78;5.20;;;;;;;4.45;82.45;93066.69;521161;28;1882;-70
2023/12/01 00:56:59;;;;;;;6.63;5.10;;;;;;;4.45;82.40;93063.22;520195;28;3519;-71
2023/12/01 00:57:15;;;;;;;6.57;4.93;;;;;;;4.45;82.18;93063.97;522659;28;3448;-71
2023/12/01 00:57:31;;;;;;;5.87;4.90;;;;;;;4.46;82.55;93068.16;521645;28;3113;-71
2023/12/01 00:57:46;;;;;;;6.35;5.35;;;;;;;4.48;82.29;93068.38;522762;28;2055;-71
2023/12/01 00:58:02;;;;;;;7.43;5.55;;;;;;;4.50;82.13;93065.13;520941;28;2670;-70
2023/12/01 00:58:18;;;;;;;7.03;5.53;;;;;;;4.52;82.40;93068.84;522393;28;2200;-70
2023/12/01 00:58:33;;;;;;;7.43;5.90;;;;;;;4.53;82.19;93081.22;522437;28;3103;-70
2023/12/01 00:58:49;;;;;;;7.77;6.10;;;;;;;4.55;82.37;93067.78;520895;28;3722;-70
2023/12/01 00:59:04;;;;;;;8.88;6.10;;;;;;;4.56;82.21;93072.00;522546;28;3925;-70
2023/12/01 00:59:19;;;;;;;10.57;5.97;;;;;;;4.59;82.20;93073.69;522049;28;3874;-70
2023/12/01 00:59:35;;;;;;;9.23;5.63;;;;;;;4.60;82.08;93075.16;521696;28;3048;-70
2023/12/01 00:59:51;;;;;;;7.20;5.73;;;;;;;4.62;81.72;93074.66;522125;28;3634;-70
2023/12/01 01:00:07;;;;;;;6.18;5.55;;;;;;;4.63;82.06;93071.38;521366;28;3897;-71
2023/12/01 01:00:23;;;;;;;6.18;5.28;;;;;;;4.63;81.78;93071.38;521638;28;2520;-71
2023/12/01 01:00:40;;;;;;;7.63;5.20;;;;;;;4.63;81.81;93070.66;520401;28;3191;-71
2023/12/01 01:00:55;;;;;;;7.63;5.25;;;;;;;4.61;82.06;93078.66;519979;28;1596;-70
2023/12/01 01:01:11;;;;;;;6.23;5.17;;;;;;;4.59;82.07;93068.22;519474;28;2095;-71
2023/12/01 01:01:26;;;;;;;6.73;5.20;;;;;;;4.59;81.84;93068.22;520624;28;3234;-70
2023/12/01 01:01:41;;;;;;;6.80;5.30;;;;;;;4.60;82.08;93072.44;521561;28;3510;-70
2023/12/01 01:01:57;;;;;;;6.97;5.03;;;;;;;4.61;82.49;93076.63;522237;28;1878;-71
2023/12/01 01:02:12;;;;;;;7.30;5.10;;;;;;;4.61;81.85;93076.63;522385;28;3431;-70
2023/12/01 01:02:29;;;;;;;6.97;5.13;;;;;;;4.62;82.32;93071.91;519800;28;3820;-71
2023/12/01 01:02:45;;;;;;;7.45;5.00;;;;;;;4.59;82.00;93070.22;520566;28;3252;-71
2023/12/01 01:03:00;;;;;;;7.23;5.13;;;;;;;4.58;82.34;93077.69;520028;28;3301;-71
2023/12/01 01:03:16;;;;;;;6.30;5.07;;;;;;;4.59;82.48;93068.22;520507;28;3499;-71
2023/12/01 01:03:33;;;;;;;6.63;5.00;;;;;;;4.60;82.26;93074.44;520509;28;3851;-69
2023/12/01 01:03:48;;;;;;;5.80;4.80;;;;;;;4.63;82.06;93069.91;520201;28;3516;-71
2023/12/01 01:04:03;;;;;;;4.90;4.40;;;;;;;4.64;82.19;93072.13;522587;28;3094;-70
2023/12/01 01:04:19;;;;;;;5.25;4.68;;;;;;;4.63;82.29;93067.94;522003;28;3871;-70
2023/12/01 01:04:34;;;;;;;6.63;5.20;;;;;;;4.62;82.44;93069.19;522395;28;2366;-71
2023/12/01 01:04:50;;;;;;;6.35;4.97;;;;;;;4.62;82.18;93066.44;521095;28;3845;-71
2023/12/01 01:05:08;;;;;;;6.03;4.60;;;;;;;4.61;82.34;93067.72;520385;28;3264;-71
2023/12/01 01:05:23;;;;;;;5.25;4.32;;;;;;;4.60;82.52;93064.25;519685;28;3540;-70
2023/12/01 01:05:39;;;;;;;5.13;4.40;;;;;;;4.61;82.15;93071.16;521666;28;3635;-71
2023/12/01 01:05:54;;;;;;;5.97;4.40;;;;;;;4.63;82.67;93072.66;519123;28;3754;-71
2023/12/01 01:06:10;;;;;;;7.17;4.27;;;;;;;4.63;82.60;93072.66;518394;28;2635;-71
2023/12/01 01:06:25;;;;;;;7.38;4.32;;;;;;;4.57;82.46;93070.72;517408;28;3442;-71
2023/12/01 01:06:41;;;;;;;6.32;4.45;;;;;;;4.55;82.80;93075.97;518883;28;3332;-70
2023/12/01 01:06:56;;;;;;;6.03;4.50;;;;;;;4.53;82.93;93080.50;517390;28;3904;-70
2023/12/01 01:07:12;;;;;;;5.35;4.50;;;;;;;4.53;83.12;93072.28;518554;28;3890;-71
2023/12/01 01:07:27;;;;;;;5.80;4.67;;;;;;;4.51;82.78;93078.28;517104;28;2126;-71
2023/12/01 01:07:43;;;;;;;6.32;5.72;;;;;;;4.48;83.12;93068.38;519119;28;3123;-70
2023/12/01 01:07:59;;;;;;;7.30;6.03;;;;;;;4.51;83.25;93069.34;521322;28;3331;-70
2023/12/01 01:08:14;;;;;;;6.90;4.87;;;;;;;4.49;83.01;93067.13;523076;28;3378;-71
2023/12/01 01:08:30;;;;;;;6.47;4.80;;;;;;;4.49;83.26;93069.13;521640;28;3075;-71
2023/12/01 01:08:45;;;;;;;7.53;5.10;;;;;;;4.48;83.49;93073.84;520919;28;2096;-71
2023/12/01 01:09:01;;;;;;;6.85;5.38;;;;;;;4.50;83.25;93074.06;520562;28;3074;-70
2023/12/01 01:09:16;;;;;;;6.40;5.23;;;;;;;4.50;83.32;93081.53;521019;28;1997;-71
2023/12/01 01:09:32;;;;;;;7.05;5.18;;;;;;;4.52;83.16;93077.03;522281;28;3074;-71
2023/12/01 01:09:47;;;;;;;7.60;5.57;;;;;;;4.52;82.94;93074.31;521736;28;1906;-70
2023/12/01 01:10:03;;;;;;;6.75;5.47;;;;;;;4.45;82.99;93077.63;521893;28;2204;-70
2023/12/01 01:10:19;;;;;;;6.27;5.20;;;;;;;4.45;83.19;93076.88;522311;28;2230;-71
2023/12/01 01:10:34;;;;;;;8.27;5.55;;;;;;;4.46;83.32;93079.09;522607;28;3227;-72
2023/12/01 01:10:49;;;;;;;8.07;5.50;;;;;;;4.48;83.49;93078.59;522081;28;2271;-71
2023/12/01 01:11:05;;;;;;;6.82;5.50;;;;;;;4.41;82.75;93079.19;520055;28;3388;-71
2023/12/01 01:11:20;;;;;;;7.03;5.50;;;;;;;4.39;83.50;93087.91;521377;28;3875;-71
2023/12/01 01:11:36;;;;;;;9.60;5.55;;;;;;;4.39;83.42;93073.50;522618;28;3036;-71
2023/12/01 01:11:51;;;;;;;9.87;5.90;;;;;;;4.42;83.34;93077.91;521898;28;3229;-71
2023/12/01 01:12:07;;;;;;;8.80;6.47;;;;;;;4.43;83.61;93084.88;520638;28;2381;-71
2023/12/01 01:12:23;;;;;;;8.83;6.23;;;;;;;4.42;82.96;93083.38;520221;28;2118;-71
2023/12/01 01:12:38;;;;;;;7.70;5.57;;;;;;;4.40;83.07;93089.38;520616;28;3429;-71
2023/12/01 01:12:54;;;;;;;7.05;5.80;;;;;;;4.42;83.45;93073.19;520290;28;2274;-70
2023/12/01 01:13:09;;;;;;;7.47;6.10;;;;;;;4.42;83.27;93075.91;520554;28;3372;-71
2023/12/01 01:13:26;;;;;;;8.07;6.13;;;;;;;4.44;83.22;93076.13;520277;28;2200;-71
2023/12/01 01:13:42;;;;;;;9.05;5.82;;;;;;;4.44;82.90;93072.69;520578;28;4125;-71
2023/12/01 01:13:59;;;;;;;9.60;5.60;;;;;;;4.44;82.92;93078.88;522191;28;2330;-71
2023/12/01 01:14:14;;;;;;;8.98;5.78;;;;;;;4.47;83.40;93075.09;519543;28;2179;-71
2023/12/01 01:14:30;;;;;;;8.88;6.07;;;;;;;4.46;83.20;93079.09;520339;28;2131;-71
2023/12/01 01:14:45;;;;;;;7.83;6.17;;;;;;;4.45;82.95;93076.88;520596;28;3063;-71
2023/12/01 01:15:03;;;;;;;7.88;5.57;;;;;;;4.43;82.71;93076.66;520338;28;3291;-71
2023/12/01 01:15:18;;;;;;;7.07;5.20;;;;;;;4.41;83.16;93063.53;520186;28;2505;-71
2023/12/01 01:15:34;;;;;;;7.65;5.15;;;;;;;4.42;83.23;93069.72;520721;28;3833;-71
2023/12/01 01:15:49;;;;;;;8.53;5.70;;;;;;;4.41;83.13;93060.03;520474;28;3475;-71
2023/12/01 01:16:05;;;;;;;9.00;6.22;;;;;;;4.42;83.06;93059.53;520445;28;3166;-71